Time;durP1;ratioP1;P1;durP2;ratioP2;P2;SDS_P1;SDS_P2;PMS_P1;PMS_P2;Temp;Humidity;BMP_temperature;BMP_pressure;BME280_temperature;BME280_humidity;BME280_pressure;Samples;Min_cycle;Max_cycle;Signal;HPM_P1;HPM_P2
2023/07/07 00:01:09;;;;;;;8.80;4.40;;;13.50;99.90;;;;;;10413831;28;20223;-90
2023/07/07 00:06:12;;;;;;;14.70;5.57;;;13.60;99.90;;;;;;10395288;28;20281;-91
2023/07/07 00:11:14;;;;;;;6.90;4.95;;;13.60;99.90;;;;;;10394822;28;20333;-89
2023/07/07 00:16:19;;;;;;;6.03;3.85;;;13.50;99.90;;;;;;10379469;28;20243;-89
2023/07/07 00:21:24;;;;;;;9.68;5.40;;;13.50;99.90;;;;;;10395275;28;20204;-89
2023/07/07 00:26:26;;;;;;;5.25;4.75;;;13.40;99.90;;;;;;10394779;28;20211;-90
2023/07/07 00:31:29;;;;;;;5.20;4.22;;;13.30;99.90;;;;;;10394644;28;20239;-90
2023/07/07 00:36:38;;;;;;;5.43;4.00;;;13.40;99.90;;;;;;10378446;28;20547;-91
2023/07/07 00:41:40;;;;;;;7.68;5.45;;;13.50;99.90;;;;;;10410845;28;20302;-90
2023/07/07 00:46:43;;;;;;;5.95;4.65;;;13.30;99.90;;;;;;10411227;28;20227;-90
2023/07/07 00:51:56;;;;;;;4.90;4.50;;;13.30;99.90;;;;;;10412291;28;20274;-89
2023/07/07 00:57:02;;;;;;;5.35;4.20;;;13.30;99.90;;;;;;10393320;28;20235;-89
2023/07/07 01:02:25;;;;;;;9.07;4.20;;;13.30;99.90;;;;;;10394597;28;20301;-90
2023/07/07 01:07:34;;;;;;;5.07;3.83;;;13.20;99.90;;;;;;10377083;28;20271;-90
2023/07/07 01:12:37;;;;;;;5.43;4.93;;;13.10;99.90;;;;;;10393677;28;20192;-89
2023/07/07 01:17:57;;;;;;;8.65;4.57;;;13.20;99.90;;;;;;10377064;28;20263;-89
2023/07/07 01:23:37;;;;;;;4.90;3.60;;;13.20;99.90;;;;;;10375948;28;20207;-89
2023/07/07 01:28:55;;;;;;;4.00;3.70;;;12.70;99.90;;;;;;10392781;28;20275;-89
2023/07/07 01:33:59;;;;;;;4.85;3.47;;;12.90;99.90;;;;;;10392816;28;20207;-90
2023/07/07 01:39:03;;;;;;;4.18;3.78;;;12.90;99.90;;;;;;10409480;28;20290;-90
2023/07/07 01:44:34;;;;;;;5.60;4.15;;;12.80;99.90;;;;;;10391966;28;20254;-89
2023/07/07 01:49:36;;;;;;;5.53;4.25;;;12.60;99.90;;;;;;10392125;28;20671;-89
2023/07/07 01:54:44;;;;;;;6.80;3.80;;;12.30;99.90;;;;;;10392019;28;20231;-89
2023/07/07 01:59:47;;;;;;;4.32;3.92;;;12.40;99.90;;;;;;10375769;28;20191;-89
2023/07/07 02:04:50;;;;;;;5.65;4.03;;;12.40;99.90;;;;;;10392191;28;20258;-89
2023/07/07 02:09:53;;;;;;;6.53;3.58;;;;;;;;;;10391551;28;20255;-90
2023/07/07 02:14:55;;;;;;;4.53;3.25;;;12.30;99.90;;;;;;10408876;28;20279;-89
2023/07/07 02:19:58;;;;;;;4.47;3.67;;;12.20;99.90;;;;;;10391372;28;20278;-89
2023/07/07 02:25:01;;;;;;;5.75;3.92;;;12.30;99.90;;;;;;10391496;28;20203;-89
2023/07/07 02:30:05;;;;;;;4.03;2.90;;;12.20;99.90;;;;;;10391631;28;20302;-89
2023/07/07 02:35:08;;;;;;;5.95;3.97;;;12.70;99.90;;;;;;10412188;28;20266;-89
2023/07/07 02:40:11;;;;;;;6.30;4.47;;;12.50;99.90;;;;;;10398410;28;20242;-90
2023/07/07 02:45:14;;;;;;;4.55;4.15;;;12.30;99.90;;;;;;10399215;28;20947;-89
2023/07/07 02:50:17;;;;;;;4.95;4.43;;;11.50;99.90;;;;;;10398222;28;20305;-90
2023/07/07 02:55:20;;;;;;;7.85;4.40;;;12.20;99.90;;;;;;10382357;28;20207;-89
2023/07/07 03:00:24;;;;;;;5.75;3.80;;;12.20;99.90;;;;;;10416460;28;20270;-90
2023/07/07 03:05:26;;;;;;;4.13;3.72;;;12.10;99.90;;;;;;10382164;28;20271;-89
2023/07/07 03:10:35;;;;;;;7.78;4.80;;;12.30;99.90;;;;;;10397697;28;20259;-89
2023/07/07 03:15:41;;;;;;;6.13;4.30;;;12.20;99.90;;;;;;10401136;28;20204;-89
2023/07/07 03:20:52;;;;;;;5.20;4.25;;;12.20;99.90;;;;;;10432201;28;20208;-90
2023/07/07 03:26:10;;;;;;;3.58;3.05;;;12.20;99.90;;;;;;10398105;28;20208;-89
2023/07/07 03:31:18;;;;;;;5.22;4.13;;;12.20;99.90;;;;;;10397442;28;20293;-89
2023/07/07 03:36:30;;;;;;;4.28;3.85;;;12.10;99.90;;;;;;10380579;28;20212;-89
2023/07/07 03:41:33;;;;;;;4.03;3.65;;;12.10;99.90;;;;;;10396079;28;20199;-89
2023/07/07 03:46:39;;;;;;;4.28;3.88;;;12.20;99.90;;;;;;10396670;28;20277;-89
2023/07/07 03:51:43;;;;;;;6.68;3.83;;;12.60;99.90;;;;;;10396193;28;20278;-89
2023/07/07 03:56:47;;;;;;;4.53;4.10;;;12.50;99.90;;;;;;10380185;28;20243;-90
2023/07/07 04:01:50;;;;;;;3.72;3.10;;;12.70;99.90;;;;;;10395923;28;20204;-89
2023/07/07 04:06:57;;;;;;;5.32;4.40;;;13.40;99.90;;;;;;10395960;28;20199;-91
2023/07/07 04:12:00;;;;;;;6.18;3.63;;;13.60;99.90;;;;;;10395226;28;20332;-89
2023/07/07 04:17:03;;;;;;;7.97;3.42;;;13.40;99.90;;;;;;10395466;28;20203;-90
2023/07/07 04:22:05;;;;;;;3.17;2.88;;;13.60;99.90;;;;;;10413105;28;20270;-89
2023/07/07 04:27:08;;;;;;;3.03;2.83;;;13.70;99.90;;;;;;10395209;28;20278;-90
2023/07/07 04:32:10;;;;;;;3.30;3.00;;;13.90;99.90;;;;;;10394577;28;20271;-89
2023/07/07 04:37:13;;;;;;;4.63;3.20;;;14.40;99.90;;;;;;10394851;28;20215;-89
2023/07/07 04:42:16;;;;;;;5.82;3.80;;;14.40;99.90;;;;;;10410729;28;20239;-89
2023/07/07 04:47:19;;;;;;;4.57;3.20;;;14.60;99.90;;;;;;10377774;28;20559;-90
2023/07/07 04:52:22;;;;;;;3.75;3.15;;;14.80;99.90;;;;;;10411984;28;20702;-89
2023/07/07 04:57:25;;;;;;;5.10;4.43;;;15.00;99.90;;;;;;10410581;28;20330;-90
2023/07/07 05:02:27;;;;;;;3.03;2.80;;;15.20;99.90;;;;;;10410684;28;20246;-90
2023/07/07 05:07:30;;;;;;;3.15;2.92;;;15.40;99.90;;;;;;10392844;28;20204;-89
2023/07/07 05:12:34;;;;;;;2.80;2.58;;;15.60;99.90;;;;;;10393764;28;20227;-90
2023/07/07 05:17:36;;;;;;;5.60;2.85;;;16.00;99.90;;;;;;10410415;28;20306;-91
2023/07/07 05:22:39;;;;;;;3.28;2.47;;;16.00;99.90;;;;;;10410819;28;20262;-91
2023/07/07 05:27:42;;;;;;;3.65;3.17;;;16.20;99.90;;;;;;10370639;28;20666;-89
2023/07/07 05:32:44;;;;;;;2.33;2.13;;;16.30;99.90;;;;;;10401511;28;20235;-90
2023/07/07 05:37:47;;;;;;;4.57;2.70;;;16.60;99.90;;;;;;10394735;28;20597;-90
2023/07/07 05:42:49;;;;;;;3.90;1.90;;;16.70;99.90;;;;;;10421446;28;20649;-90
2023/07/07 05:47:52;;;;;;;3.83;3.42;;;16.90;99.90;;;;;;10392394;28;20231;-90
2023/07/07 05:52:55;;;;;;;2.53;2.22;;;17.00;99.90;;;;;;10391848;28;20297;-91
2023/07/07 05:57:58;;;;;;;3.53;2.95;;;17.20;99.90;;;;;;10392988;28;20286;-90
2023/07/07 06:03:00;;;;;;;1.77;1.67;;;17.40;99.90;;;;;;10410528;28;20290;-90
2023/07/07 06:08:04;;;;;;;3.67;2.85;;;17.60;99.90;;;;;;10393034;28;20204;-90
2023/07/07 06:13:07;;;;;;;3.88;2.60;;;17.70;99.90;;;;;;10400894;28;20262;-90
2023/07/07 06:18:10;;;;;;;3.42;2.15;;;17.90;99.90;;;;;;10400641;28;20358;-90
2023/07/07 06:23:12;;;;;;;4.80;3.10;;;18.10;98.90;;;;;;10401831;28;20212;-91
2023/07/07 06:28:18;;;;;;;1.98;1.65;;;18.30;98.10;;;;;;10435631;28;20204;-91
2023/07/07 06:33:22;;;;;;;2.58;2.38;;;18.50;97.90;;;;;;10383870;28;20258;-91
2023/07/07 06:38:25;;;;;;;3.42;3.13;;;18.60;97.20;;;;;;10428765;28;20257;-90
2023/07/07 06:43:28;;;;;;;5.80;2.15;;;18.80;95.30;;;;;;10384006;28;20647;-91
2023/07/07 06:48:30;;;;;;;3.70;1.80;;;19.00;94.90;;;;;;10409280;28;20238;-91
2023/07/07 06:53:33;;;;;;;2.00;1.63;;;19.20;94.90;;;;;;10419208;28;20228;-91
2023/07/07 06:58:36;;;;;;;2.20;2.00;;;19.40;94.20;;;;;;10419308;28;20200;-92
2023/07/07 07:03:39;;;;;;;1.80;1.70;;;19.60;91.40;;;;;;10402490;28;20208;-92
2023/07/07 07:08:41;;;;;;;2.00;1.80;;;19.80;87.90;;;;;;10420041;28;20216;-91
2023/07/07 07:13:44;;;;;;;2.65;2.00;;;20.00;81.40;;;;;;10385913;28;20649;-90
2023/07/07 07:18:47;;;;;;;2.10;1.70;;;20.30;77.00;;;;;;10419063;28;20200;-91
2023/07/07 07:23:50;;;;;;;2.40;1.67;;;20.40;64.70;;;;;;10401732;28;20207;-91
2023/07/07 07:28:53;;;;;;;1.73;1.35;;;20.60;70.60;;;;;;10402076;28;20209;-91
2023/07/07 07:34:26;;;;;;;1.67;1.58;;;20.80;64.60;;;;;;10400611;28;20207;-91
2023/07/07 07:39:29;;;;;;;2.95;2.13;;;20.90;47.90;;;;;;10401107;28;20250;-91
2023/07/07 07:44:32;;;;;;;4.15;2.50;;;21.10;49.30;;;;;;10387350;28;20670;-90
2023/07/07 07:49:34;;;;;;;2.00;1.80;;;21.40;57.70;;;;;;10413122;28;20667;-92
2023/07/07 07:54:38;;;;;;;2.72;2.03;;;21.60;59.30;;;;;;10404905;28;20227;-93
2023/07/07 07:59:52;;;;;;;2.78;1.90;;;21.70;50.80;;;;;;10391690;28;20220;-93
2023/07/07 08:04:55;;;;;;;2.90;2.35;;;21.80;36.70;;;;;;10399815;28;20266;-92
2023/07/07 08:09:58;;;;;;;2.30;1.90;;;22.00;41.90;;;;;;10405607;28;20231;-92
2023/07/07 08:15:01;;;;;;;2.22;1.70;;;22.20;52.80;;;;;;10421541;28;20247;-91
2023/07/07 08:20:13;;;;;;;3.80;1.95;;;22.30;43.40;;;;;;10408393;28;20237;-91
2023/07/07 08:25:16;;;;;;;1.77;1.63;;;22.40;39.30;;;;;;10415805;28;20792;-92
2023/07/07 08:30:19;;;;;;;2.25;1.77;;;22.50;37.00;;;;;;10412885;28;20767;-91
2023/07/07 08:35:22;;;;;;;2.30;1.90;;;22.70;49.10;;;;;;10398771;28;20246;-92
2023/07/07 08:40:31;;;;;;;2.35;1.63;;;22.80;49.20;;;;;;10392998;28;20204;-91
2023/07/07 08:45:33;;;;;;;2.20;2.00;;;22.90;44.00;;;;;;10480039;28;20553;-92
2023/07/07 08:50:51;;;;;;;5.18;1.80;;;23.00;43.60;;;;;;10402979;28;20223;-91
2023/07/07 08:56:00;;;;;;;2.40;2.00;;;22.90;30.90;;;;;;10425104;28;20199;-91
2023/07/07 09:01:11;;;;;;;2.65;2.45;;;23.00;29.80;;;;;;10399088;28;20196;-91
2023/07/07 09:06:46;;;;;;;3.25;1.95;;;23.20;40.40;;;;;;10417841;28;20195;-92
2023/07/07 09:12:01;;;;;;;4.80;1.73;;;23.30;42.80;;;;;;10395033;28;20250;-93
2023/07/07 09:17:13;;;;;;;2.15;1.92;;;23.30;33.10;;;;;;10389171;28;20204;-92
2023/07/07 09:23:14;;;;;;;2.40;2.08;;;23.40;28.60;;;;;;10396892;28;20211;-92
2023/07/07 09:28:17;;;;;;;7.85;2.20;;;23.50;37.60;;;;;;10371684;28;20212;-92
2023/07/07 09:33:23;;;;;;;2.85;1.52;;;23.70;30.10;;;;;;10396398;28;20223;-92
2023/07/07 09:38:48;;;;;;;2.58;2.05;;;23.70;27.80;;;;;;10381285;28;20204;-92
2023/07/07 09:44:02;;;;;;;3.67;2.00;;;23.70;27.20;;;;;;10407176;28;20552;-91
2023/07/07 09:49:41;;;;;;;3.47;2.03;;;23.70;26.60;;;;;;10414460;28;20207;-91
2023/07/07 09:54:52;;;;;;;4.15;2.83;;;23.60;31.50;;;;;;10405819;28;20235;-93
2023/07/07 09:59:58;;;;;;;4.22;1.75;;;23.80;37.70;;;;;;10376188;28;20226;-92
2023/07/07 10:05:07;;;;;;;1.80;1.70;;;24.00;31.30;;;;;;10396230;28;20241;-92
2023/07/07 10:10:13;;;;;;;3.65;2.00;;;23.90;26.00;;;;;;10445547;28;20215;-92
2023/07/07 10:15:49;;;;;;;2.13;1.92;;;23.90;18.90;;;;;;10441348;28;20198;-90
2023/07/07 10:21:19;;;;;;;2.63;1.85;;;23.90;30.70;;;;;;10414958;28;20553;-94
2023/07/07 10:26:22;;;;;;;1.85;1.67;;;24.00;34.20;;;;;;10415146;28;20597;-92
2023/07/07 10:31:29;;;;;;;1.80;1.70;;;23.90;28.40;;;;;;10415470;28;20254;-91
2023/07/07 10:36:40;;;;;;;5.85;1.90;;;24.10;26.30;;;;;;10406669;28;20234;-91
2023/07/07 10:41:44;;;;;;;3.08;1.85;;;24.20;26.00;;;;;;10406928;28;20207;-90
2023/07/07 10:46:47;;;;;;;2.08;1.88;;;24.20;23.30;;;;;;10424992;28;20207;-91
2023/07/07 10:52:36;;;;;;;1.85;1.63;;;24.20;21.10;;;;;;10424819;28;20605;-91
2023/07/07 10:58:06;;;;;;;4.55;1.95;;;24.20;20.60;;;;;;10373589;28;20231;-91
2023/07/07 11:03:20;;;;;;;2.63;1.95;;;24.20;29.90;;;;;;10396815;28;20211;-91
2023/07/07 11:08:52;;;;;;;2.28;1.92;;;24.20;29.60;;;;;;10404249;28;20210;-91
2023/07/07 11:14:26;;;;;;;1.50;1.40;;;24.20;24.40;;;;;;10408803;28;20867;-90
2023/07/07 11:19:32;;;;;;;4.43;1.55;;;24.20;23.20;;;;;;10405824;28;20265;-91
2023/07/07 11:24:46;;;;;;;2.45;1.70;;;24.20;20.30;;;;;;10397724;28;20266;-90
2023/07/07 11:30:32;;;;;;;2.53;2.20;;;24.10;20.10;;;;;;10405222;28;20238;-92
2023/07/07 11:35:57;;;;;;;3.00;1.88;;;24.20;18.40;;;;;;10404345;28;20207;-91
2023/07/07 11:41:21;;;;;;;2.75;2.55;;;24.40;20.10;;;;;;10415359;28;20204;-91
2023/07/07 11:46:36;;;;;;;7.22;2.22;;;24.50;22.80;;;;;;10396851;28;20215;-91
2023/07/07 11:51:45;;;;;;;2.08;1.75;;;24.60;22.20;;;;;;10427849;28;20333;-91
2023/07/07 11:57:30;;;;;;;2.30;1.88;;;24.50;19.60;;;;;;10436579;28;20253;-90
2023/07/07 12:02:45;;;;;;;1.88;1.70;;;24.50;21.20;;;;;;10407529;28;20270;-91
2023/07/07 12:07:58;;;;;;;2.03;1.85;;;24.70;26.20;;;;;;10396020;28;20215;-91
2023/07/07 12:13:21;;;;;;;2.25;1.90;;;24.60;21.80;;;;;;10415714;28;20251;-91
2023/07/07 12:18:40;;;;;;;3.67;1.90;;;24.50;26.90;;;;;;10369646;28;20212;-91
2023/07/07 12:24:03;;;;;;;6.32;2.03;;;24.60;18.60;;;;;;10416384;28;20557;-91
2023/07/07 12:29:06;;;;;;;5.60;2.20;;;24.70;19.20;;;;;;10426130;28;20262;-91
2023/07/07 12:34:41;;;;;;;2.10;1.50;;;24.70;18.90;;;;;;10435794;28;20339;-91
2023/07/07 12:40:21;;;;;;;1.92;1.65;;;24.70;14.10;;;;;;10419792;28;20265;-90
2023/07/07 12:45:37;;;;;;;2.22;1.98;;;24.80;15.30;;;;;;10206998;29;20251;-91
2023/07/07 12:50:47;;;;;;;2.40;1.40;;;24.90;16.70;;;;;;10206361;29;20233;-91
2023/07/07 12:56:06;;;;;;;2.17;1.58;;;24.90;13.60;;;;;;10261381;28;20686;-91
2023/07/07 13:01:16;;;;;;;2.10;1.80;;;25.00;14.00;;;;;;10231883;28;20588;-91
2023/07/07 13:06:51;;;;;;;1.67;1.58;;;25.00;16.60;;;;;;10246552;28;20361;-90
2023/07/07 13:12:03;;;;;;;3.88;2.20;;;25.00;16.00;;;;;;10152188;29;20298;-92
2023/07/07 13:17:32;;;;;;;2.38;1.58;;;25.10;16.10;;;;;;10197670;28;20291;-91
2023/07/07 13:22:45;;;;;;;4.55;2.40;;;25.20;15.40;;;;;;10322895;28;20624;-90
2023/07/07 13:27:53;;;;;;;3.17;1.88;;;25.20;19.30;;;;;;10308576;28;20280;-93
2023/07/07 13:32:57;;;;;;;2.42;2.22;;;25.20;16.10;;;;;;10309535;28;20264;-89
2023/07/07 13:38:13;;;;;;;2.28;2.08;;;25.30;18.90;;;;;;10325218;28;20232;-89
2023/07/07 13:43:41;;;;;;;2.03;1.85;;;25.30;19.10;;;;;;10300396;28;20259;-89
2023/07/07 13:48:55;;;;;;;2.92;1.77;;;25.40;20.30;;;;;;10371084;28;20286;-90
2023/07/07 13:54:00;;;;;;;2.47;2.28;;;25.40;20.10;;;;;;10414971;28;20726;-89
2023/07/07 13:59:12;;;;;;;1.95;1.77;;;25.20;23.70;;;;;;10392082;28;20203;-91
2023/07/07 14:04:22;;;;;;;2.83;2.42;;;25.10;22.20;;;;;;10392460;28;20289;-90
2023/07/07 14:09:34;;;;;;;2.70;1.77;;;25.00;20.60;;;;;;10430654;28;20208;-89
2023/07/07 14:14:38;;;;;;;2.42;2.10;;;25.00;19.80;;;;;;10379531;28;20627;-89
2023/07/07 14:19:53;;;;;;;2.25;2.05;;;25.00;17.70;;;;;;10387592;28;20231;-88
2023/07/07 14:24:59;;;;;;;2.55;2.22;;;25.00;21.10;;;;;;10409359;28;20211;-90
2023/07/07 14:30:05;;;;;;;2.38;1.95;;;25.10;22.20;;;;;;10375908;28;20263;-90
2023/07/07 14:35:20;;;;;;;2.08;1.65;;;25.10;20.80;;;;;;10415574;28;20266;-89
2023/07/07 14:40:43;;;;;;;4.38;2.25;;;25.10;22.60;;;;;;10415891;28;20208;-90
2023/07/07 14:45:57;;;;;;;2.63;2.08;;;25.10;22.50;;;;;;10415680;28;20219;-89
2023/07/07 14:51:09;;;;;;;1.98;1.50;;;25.10;19.90;;;;;;10399604;28;20239;-89
2023/07/07 14:56:31;;;;;;;1.85;1.70;;;25.10;13.40;;;;;;10415690;28;20305;-90
2023/07/07 15:01:38;;;;;;;6.75;2.28;;;25.10;21.10;;;;;;10399127;28;20258;-90
2023/07/07 15:07:02;;;;;;;2.55;2.35;;;25.10;17.60;;;;;;10415642;28;20227;-91
2023/07/07 15:12:08;;;;;;;5.68;1.92;;;25.20;16.30;;;;;;10399619;28;20574;-90
2023/07/07 15:17:19;;;;;;;3.40;1.50;;;25.20;16.10;;;;;;10414041;28;20247;-90
2023/07/07 15:22:26;;;;;;;3.17;1.75;;;25.10;15.00;;;;;;10395716;28;20238;-90
2023/07/07 15:27:29;;;;;;;3.85;1.98;;;25.20;11.40;;;;;;10416419;28;20261;-90
2023/07/07 15:32:32;;;;;;;5.85;1.85;;;25.20;16.10;;;;;;10418538;28;20259;-92
2023/07/07 15:37:36;;;;;;;4.18;1.98;;;25.10;17.90;;;;;;10426781;28;20200;-92
2023/07/07 15:42:39;;;;;;;4.95;2.08;;;25.20;18.80;;;;;;10384909;28;20253;-90
2023/07/07 15:47:44;;;;;;;3.53;1.90;;;25.30;18.70;;;;;;10395597;28;20207;-90
2023/07/07 15:52:47;;;;;;;6.15;2.25;;;25.40;14.50;;;;;;10412707;28;20258;-90
2023/07/07 15:57:50;;;;;;;7.32;2.63;;;25.40;18.50;;;;;;10375855;28;20629;-93
2023/07/07 16:02:52;;;;;;;2.60;1.73;;;25.40;18.10;;;;;;10395590;28;20679;-90
2023/07/07 16:07:55;;;;;;;2.13;1.55;;;25.40;14.50;;;;;;10390516;28;20262;-91
2023/07/07 16:12:58;;;;;;;2.88;1.80;;;25.40;13.20;;;;;;10395105;28;20294;-90
2023/07/07 16:18:00;;;;;;;3.88;1.73;;;25.40;13.00;;;;;;10394539;28;20212;-90
2023/07/07 16:23:03;;;;;;;1.92;1.65;;;25.50;13.60;;;;;;10412230;28;20607;-90
2023/07/07 16:28:10;;;;;;;4.05;1.83;;;25.70;13.10;;;;;;10394314;28;20208;-90
2023/07/07 16:33:12;;;;;;;1.90;1.70;;;25.80;14.40;;;;;;10393709;28;20274;-90
2023/07/07 16:38:15;;;;;;;2.10;1.90;;;25.90;14.10;;;;;;10395085;28;20207;-90
2023/07/07 16:43:17;;;;;;;2.63;1.85;;;25.90;14.70;;;;;;10411770;28;20247;-89
2023/07/07 16:48:20;;;;;;;2.17;1.98;;;25.90;12.40;;;;;;10393436;28;20207;-90
2023/07/07 16:53:24;;;;;;;2.55;2.13;;;26.00;15.20;;;;;;10410017;28;20337;-90
2023/07/07 16:58:26;;;;;;;2.25;1.90;;;26.00;13.30;;;;;;10393562;28;20705;-90
2023/07/07 17:03:29;;;;;;;2.78;2.03;;;25.90;16.50;;;;;;10376908;28;20250;-90
2023/07/07 17:08:32;;;;;;;3.00;2.10;;;25.80;17.40;;;;;;10393115;28;20208;-90
2023/07/07 17:13:34;;;;;;;2.95;1.88;;;25.70;16.50;;;;;;10393183;28;20605;-90
2023/07/07 17:18:37;;;;;;;3.33;2.22;;;25.70;16.50;;;;;;10409840;28;20251;-90
2023/07/07 17:23:40;;;;;;;2.50;1.45;;;25.60;14.60;;;;;;10392861;28;20238;-91
2023/07/07 17:28:43;;;;;;;3.05;1.92;;;25.50;15.10;;;;;;10392869;28;20282;-91
2023/07/07 17:33:47;;;;;;;2.22;1.73;;;25.50;16.20;;;;;;10409327;28;20326;-90
2023/07/07 17:38:50;;;;;;;1.92;1.55;;;25.40;13.80;;;;;;10392440;28;20293;-90
2023/07/07 17:43:53;;;;;;;3.58;1.98;;;25.40;14.60;;;;;;10410241;28;20204;-90
2023/07/07 17:49:15;;;;;;;13.77;3.55;;;25.20;14.30;;;;;;10391778;28;20251;-90
2023/07/07 17:54:21;;;;;;;6.72;2.25;;;25.10;16.30;;;;;;10391461;28;20267;-90
2023/07/07 17:59:23;;;;;;;6.70;2.33;;;24.90;17.40;;;;;;10408708;28;20663;-90
2023/07/07 18:04:26;;;;;;;5.50;1.92;;;24.70;18.40;;;;;;10411060;28;20243;-90
2023/07/07 18:09:28;;;;;;;8.77;2.20;;;24.50;22.90;;;;;;10417118;28;20595;-91
2023/07/07 18:14:31;;;;;;;10.38;2.40;;;24.10;19.90;;;;;;10402675;28;20551;-90
2023/07/07 18:19:34;;;;;;;14.15;3.15;;;23.70;22.60;;;;;;10420587;28;20207;-89
2023/07/07 18:24:58;;;;;;;9.07;2.17;;;23.40;25.60;;;;;;10415967;28;20263;-90
2023/07/07 18:30:05;;;;;;;8.80;3.47;;;23.00;28.90;;;;;;10399742;28;20264;-90
2023/07/07 18:35:08;;;;;;;7.95;1.73;;;22.60;26.90;;;;;;10416303;28;20320;-91
2023/07/07 18:40:33;;;;;;;7.15;2.10;;;22.40;29.20;;;;;;10416331;28;20310;-90
2023/07/07 18:45:36;;;;;;;6.38;2.13;;;22.00;37.20;;;;;;10391411;28;20227;-91
2023/07/07 18:50:39;;;;;;;6.78;3.08;;;21.60;44.10;;;;;;10365392;28;20608;-90
2023/07/07 18:55:45;;;;;;;3.60;2.15;;;21.10;43.10;;;;;;10408595;28;20333;-91
2023/07/07 19:00:50;;;;;;;7.28;2.45;;;21.00;47.60;;;;;;10392426;28;20243;-91
2023/07/07 19:05:54;;;;;;;11.50;2.58;;;20.90;51.20;;;;;;10367779;28;20274;-92
2023/07/07 19:10:57;;;;;;;2.13;1.60;;;20.80;53.70;;;;;;10398641;28;20298;-91
2023/07/07 19:16:00;;;;;;;5.18;1.42;;;20.70;57.60;;;;;;10416767;28;20267;-90
2023/07/07 19:21:12;;;;;;;6.85;2.60;;;20.60;59.50;;;;;;10066725;28;10000171;-92
2023/07/07 19:26:24;;;;;;;6.75;2.50;;;20.40;64.60;;;;;;10613724;22;10001618;-89
2023/07/07 19:31:28;;;;;;;7.80;2.67;;;20.10;72.20;;;;;;10444887;28;20235;-89
2023/07/07 19:36:36;;;;;;;12.00;2.72;;;19.90;76.50;;;;;;10451319;28;20778;-89
2023/07/07 19:41:38;;;;;;;7.00;3.00;;;19.70;84.50;;;;;;10434316;28;20262;-89
2023/07/07 19:46:42;;;;;;;5.93;2.53;;;19.70;87.20;;;;;;10449298;28;20238;-89
2023/07/07 19:51:46;;;;;;;10.90;3.22;;;19.50;87.30;;;;;;10448503;28;20235;-89
2023/07/07 19:56:49;;;;;;;4.13;2.50;;;19.30;90.10;;;;;;10426466;28;20239;-89
2023/07/07 20:01:51;;;;;;;5.90;3.13;;;19.20;90.60;;;;;;10447881;28;20238;-90
2023/07/07 20:06:54;;;;;;;4.57;2.30;;;19.10;91.10;;;;;;10448617;28;20238;-89
2023/07/07 20:11:57;;;;;;;4.53;2.88;;;18.90;92.00;;;;;;10430909;28;20846;-89
2023/07/07 20:17:00;;;;;;;8.77;3.53;;;18.70;93.20;;;;;;10450599;28;20300;-90
2023/07/07 20:22:11;;;;;;;3.88;3.05;;;18.70;93.00;;;;;;10423125;28;20284;-90
2023/07/07 20:27:13;;;;;;;9.15;3.63;;;18.50;93.70;;;;;;10449930;28;20285;-90
2023/07/07 20:32:16;;;;;;;10.07;3.03;;;18.40;94.40;;;;;;10444537;28;20267;-90
2023/07/07 20:37:18;;;;;;;9.57;3.55;;;18.10;94.70;;;;;;10431801;28;20235;-91
2023/07/07 20:42:21;;;;;;;4.18;3.08;;;18.00;95.70;;;;;;10446870;28;20277;-90
2023/07/07 20:47:24;;;;;;;3.67;2.35;;;17.80;95.90;;;;;;10403193;28;20783;-91
2023/07/07 20:52:26;;;;;;;2.55;2.10;;;17.80;96.50;;;;;;10430336;28;20804;-90
2023/07/07 20:57:29;;;;;;;5.90;2.42;;;17.80;97.00;;;;;;10428537;28;20250;-88
2023/07/07 21:02:32;;;;;;;5.32;2.95;;;17.60;97.00;;;;;;10413330;28;20208;-90
2023/07/07 21:07:35;;;;;;;5.47;2.47;;;17.50;97.80;;;;;;10412871;28;20244;-90
2023/07/07 21:12:38;;;;;;;3.90;2.13;;;17.40;98.00;;;;;;10427625;28;20258;-88
2023/07/07 21:17:41;;;;;;;4.85;3.00;;;17.30;98.20;;;;;;10447599;28;20258;-89
2023/07/07 21:22:44;;;;;;;6.07;2.38;;;17.40;98.30;;;;;;10446736;28;20293;-89
2023/07/07 21:27:47;;;;;;;10.80;3.53;;;17.20;99.20;;;;;;10447647;28;20267;-89
2023/07/07 21:32:49;;;;;;;6.97;2.75;;;17.10;99.90;;;;;;10424205;28;20258;-89
2023/07/07 21:37:52;;;;;;;11.95;3.75;;;17.00;99.90;;;;;;10447819;28;20246;-89
2023/07/07 21:42:54;;;;;;;6.43;3.05;;;16.70;99.90;;;;;;10447236;28;20304;-90
2023/07/07 21:48:01;;;;;;;10.25;3.47;;;16.60;99.90;;;;;;10426030;28;20269;-89
2023/07/07 21:53:09;;;;;;;6.35;3.05;;;16.40;99.90;;;;;;10444852;28;20770;-89
2023/07/07 21:58:11;;;;;;;5.70;2.72;;;16.30;99.90;;;;;;10429231;28;20238;-89
2023/07/07 22:03:17;;;;;;;8.07;3.80;;;16.30;99.90;;;;;;10446465;28;20230;-89
2023/07/07 22:08:20;;;;;;;5.63;3.03;;;16.30;99.90;;;;;;10446809;28;20245;-89
2023/07/07 22:13:22;;;;;;;10.18;2.70;;;16.20;99.90;;;;;;10428968;28;20308;-88
2023/07/07 22:18:25;;;;;;;5.43;3.50;;;16.20;99.90;;;;;;10445059;28;20238;-90
2023/07/07 22:23:29;;;;;;;6.55;3.72;;;16.20;99.90;;;;;;10446055;28;20687;-90
2023/07/07 22:28:32;;;;;;;4.68;3.53;;;16.10;99.90;;;;;;10444849;28;20304;-89
2023/07/07 22:33:35;;;;;;;8.88;2.80;;;15.80;99.90;;;;;;10444648;28;20644;-90
2023/07/07 22:38:38;;;;;;;3.85;3.40;;;15.80;99.90;;;;;;10446489;28;20238;-90
2023/07/07 22:43:41;;;;;;;5.57;2.65;;;15.80;99.90;;;;;;10445314;28;20300;-90
2023/07/07 22:48:43;;;;;;;9.77;3.72;;;15.70;99.90;;;;;;10445587;28;20373;-90
2023/07/07 22:53:46;;;;;;;2.83;2.47;;;15.60;99.90;;;;;;10433023;28;20693;-90
2023/07/07 22:58:49;;;;;;;3.58;2.90;;;15.50;99.90;;;;;;10453098;28;20704;-90
2023/07/07 23:04:03;;;;;;;12.38;3.67;;;15.50;99.90;;;;;;10427048;28;20302;-90
2023/07/07 23:09:55;;;;;;;5.47;3.00;;;15.40;99.90;;;;;;10453161;28;20227;-90
2023/07/07 23:14:57;;;;;;;3.83;3.42;;;15.50;99.90;;;;;;10437233;28;20757;-89
2023/07/07 23:20:04;;;;;;;5.68;2.75;;;15.40;99.90;;;;;;10441641;28;20698;-89
2023/07/07 23:25:11;;;;;;;3.08;2.85;;;15.20;99.90;;;;;;10427463;28;20260;-90
2023/07/07 23:30:18;;;;;;;7.63;4.63;;;15.20;99.90;;;;;;10426091;28;20672;-90
2023/07/07 23:35:21;;;;;;;4.30;3.90;;;15.10;99.90;;;;;;10432390;28;20914;-90
2023/07/07 23:40:30;;;;;;;6.95;3.28;;;15.00;99.90;;;;;;10449506;28;20238;-90
2023/07/07 23:45:33;;;;;;;6.57;4.10;;;14.90;99.90;;;;;;10452131;28;20693;-90
2023/07/07 23:50:56;;;;;;;6.40;3.55;;;14.80;99.90;;;;;;10435334;28;20273;-90
2023/07/07 23:55:58;;;;;;;7.25;5.47;;;14.80;99.90;;;;;;10450116;28;20273;-90
